createdAt,value
2019-04-25T04:20:15.144Z,75.20
2019-04-25T04:22:47.227Z,75.40
2019-04-25T04:25:18.938Z,75.10
2019-04-25T15:46:09.516Z,27.80
2019-04-25T15:48:40.009Z,28.50
2019-04-25T15:51:09.847Z,28.70
2019-04-25T15:53:40.236Z,28.70
2019-04-25T15:56:09.781Z,28.40
2019-04-25T15:58:40.355Z,28.20
2019-04-25T16:01:10.119Z,27.90
2019-04-25T16:03:41.019Z,28.50
2019-04-25T16:06:11.133Z,28.70
2019-04-25T16:08:40.912Z,28.90
2019-04-25T16:11:11.568Z,29.00
2019-04-25T16:13:41.119Z,29.20
2019-04-25T16:16:10.551Z,29.30
2019-04-25T16:18:41.176Z,29.10
2019-04-25T16:21:10.989Z,29.30
2019-04-25T16:23:40.635Z,29.50
2019-04-25T16:26:10.662Z,29.90
2019-04-25T16:28:40.568Z,30.00
2019-04-25T16:31:11.702Z,29.90
2019-04-25T16:33:42.095Z,30.70
2019-04-25T16:36:12.939Z,31.50
2019-04-25T16:38:42.497Z,32.00
2019-04-25T16:41:13.387Z,32.70
2019-04-25T16:43:44.582Z,33.10
2019-04-25T16:46:15.005Z,33.40
2019-04-25T16:48:44.765Z,33.70
2019-04-25T16:51:14.232Z,33.70
2019-04-25T16:53:43.805Z,34.00
2019-04-25T16:56:13.489Z,34.40
2019-04-25T16:58:43.262Z,34.20
2019-04-25T17:01:14.082Z,34.50
2019-04-25T17:03:43.960Z,34.80
2019-04-25T17:06:13.521Z,35.30
2019-04-25T17:08:43.938Z,35.40
2019-04-25T17:11:13.966Z,35.60
2019-04-25T17:13:45.011Z,35.50
2019-04-25T17:16:19.100Z,35.80
2019-04-25T17:19:01.931Z,35.70
2019-04-25T17:21:32.463Z,36.20
2019-04-25T17:24:02.088Z,36.30
2019-04-25T17:26:32.466Z,37.20
2019-04-25T17:29:03.866Z,37.00
2019-04-25T17:31:35.005Z,37.30
2019-04-25T17:34:09.045Z,37.70
2019-04-25T17:36:52.064Z,37.80
2019-04-25T17:39:23.488Z,37.80
2019-04-25T17:41:53.009Z,38.20
2019-04-25T17:44:22.572Z,38.40
2019-04-25T17:46:53.041Z,38.70
2019-04-25T17:49:22.528Z,38.80
2019-04-25T17:51:52.705Z,38.90
